createdAt,value
2022-12-25T00:02:30.006Z,99241.20
2022-12-25T00:05:27.492Z,99245.00
2022-12-25T00:08:25.250Z,99245.80
2022-12-25T00:11:22.681Z,99248.00
2022-12-25T00:14:20.403Z,99246.20
2022-12-25T00:17:18.151Z,99249.80
2022-12-25T00:20:15.584Z,99241.20
2022-12-25T00:23:13.292Z,99247.40
2022-12-25T00:26:10.722Z,99245.40
2022-12-25T00:29:08.359Z,99237.00
2022-12-25T00:32:05.793Z,99237.60
2022-12-25T00:35:03.566Z,99237.80
2022-12-25T00:38:01.024Z,99236.20
2022-12-25T00:40:58.756Z,99243.40
2022-12-25T00:43:56.778Z,99254.00
2022-12-25T00:46:54.335Z,99259.60
2022-12-25T00:49:52.174Z,99251.20
2022-12-25T00:52:49.607Z,99257.20
2022-12-25T00:55:47.296Z,99259.20
2022-12-25T00:58:44.730Z,99264.80
2022-12-25T01:01:42.573Z,99265.00
2022-12-25T01:04:40.443Z,99269.40
2022-12-25T01:07:37.897Z,99278.00
2022-12-25T01:10:35.591Z,99279.20
2022-12-25T01:13:34.713Z,99269.20
2022-12-25T01:16:32.454Z,99257.80
2022-12-25T01:19:29.937Z,99265.20
2022-12-25T01:22:27.701Z,99273.00
2022-12-25T01:25:25.147Z,99267.60
2022-12-25T01:28:22.761Z,99269.20
2022-12-25T01:31:20.424Z,99274.80
2022-12-25T01:34:17.874Z,99275.40
2022-12-25T01:37:15.618Z,99259.60
2022-12-25T01:40:13.062Z,99261.40
2022-12-25T01:43:17.054Z,99265.20
2022-12-25T01:46:16.516Z,99261.00
2022-12-25T01:49:14.148Z,99268.60
2022-12-25T01:52:11.791Z,99268.20
2022-12-25T01:55:12.261Z,99267.60
2022-12-25T01:58:10.025Z,99270.60
2022-12-25T02:01:07.561Z,99272.00
2022-12-25T02:04:05.282Z,99270.40
2022-12-25T02:07:02.720Z,99270.60
2022-12-25T02:10:00.460Z,99279.40
2022-12-25T02:12:57.933Z,99282.60
2022-12-25T02:15:55.618Z,99284.20
2022-12-25T02:18:53.077Z,99287.00
2022-12-25T02:21:50.715Z,99288.20
2022-12-25T02:24:48.366Z,99285.60
2022-12-25T02:27:45.828Z,99287.00
2022-12-25T02:30:43.524Z,99289.40
2022-12-25T02:33:59.012Z,99296.80
2022-12-25T02:36:56.747Z,99293.60
2022-12-25T02:40:00.451Z,99284.60
2022-12-25T02:43:16.023Z,99291.00
2022-12-25T02:46:31.408Z,99291.40
2022-12-25T02:49:46.736Z,99293.20
2022-12-25T02:53:02.171Z,99298.40
2022-12-25T02:56:17.189Z,99296.80
2022-12-25T02:59:32.498Z,99299.00
2022-12-25T03:02:47.714Z,99296.40
2022-12-25T03:06:03.153Z,99295.00
2022-12-25T03:09:20.930Z,99297.60
2022-12-25T03:12:18.374Z,99297.80
2022-12-25T03:15:36.113Z,99296.00
2022-12-25T03:18:33.895Z,99294.40
2022-12-25T03:21:49.161Z,99298.40
2022-12-25T03:25:04.578Z,99312.20
2022-12-25T03:28:02.018Z,99310.20
2022-12-25T03:31:15.124Z,99322.40
2022-12-25T03:34:30.665Z,99319.00
2022-12-25T03:37:45.084Z,99318.00
2022-12-25T03:41:00.447Z,99317.20
2022-12-25T03:44:30.502Z,99315.80
2022-12-25T03:47:45.805Z,99313.40
2022-12-25T03:51:01.164Z,99308.00
2022-12-25T03:54:16.538Z,99310.00
2022-12-25T03:57:31.792Z,99309.60
2022-12-25T04:00:47.441Z,99319.80
2022-12-25T04:04:02.372Z,99313.60
2022-12-25T04:07:22.788Z,99305.60
2022-12-25T04:10:37.988Z,99309.80
2022-12-25T04:13:53.525Z,99315.80
2022-12-25T04:17:08.887Z,99315.60
2022-12-25T04:20:24.265Z,99315.80
2022-12-25T04:23:39.597Z,99313.80
2022-12-25T04:26:54.610Z,99319.20
2022-12-25T04:30:10.325Z,99322.40
2022-12-25T04:33:37.354Z,99316.40
2022-12-25T04:36:34.790Z,99316.80
2022-12-25T04:39:32.521Z,99308.20
2022-12-25T04:42:29.954Z,99317.00
2022-12-25T04:45:27.632Z,99316.60
2022-12-25T04:48:25.062Z,99316.20
2022-12-25T04:51:22.851Z,99317.40
2022-12-25T04:54:20.296Z,99317.80
2022-12-25T04:57:18.499Z,99318.60
2022-12-25T05:00:16.339Z,99317.40
2022-12-25T05:03:13.897Z,99316.60
2022-12-25T05:06:11.680Z,99314.00
2022-12-25T05:09:09.177Z,99313.40
2022-12-25T05:12:06.844Z,99310.60
2022-12-25T05:15:04.325Z,99311.00
2022-12-25T05:18:02.032Z,99307.40
2022-12-25T05:20:59.449Z,99303.20
2022-12-25T05:23:57.164Z,99305.80
2022-12-25T05:26:54.588Z,99303.60
2022-12-25T05:29:52.296Z,99295.60
2022-12-25T05:32:49.727Z,99305.80
2022-12-25T05:35:47.535Z,99303.20
2022-12-25T05:38:45.266Z,99295.80
2022-12-25T05:41:42.704Z,99305.00
2022-12-25T05:44:40.404Z,99302.40
2022-12-25T05:47:37.825Z,99309.80
2022-12-25T05:50:35.558Z,99303.60
2022-12-25T05:53:33.115Z,99296.40
2022-12-25T05:56:30.865Z,99303.00
2022-12-25T05:59:28.598Z,99305.80
2022-12-25T06:02:26.190Z,99310.80
2022-12-25T06:05:24.125Z,99311.00
2022-12-25T06:08:21.574Z,99313.00
2022-12-25T06:11:19.286Z,99312.40
2022-12-25T06:14:16.769Z,99316.00
2022-12-25T06:17:14.503Z,99315.80
2022-12-25T06:20:11.938Z,99322.60
2022-12-25T06:23:09.683Z,99325.20
2022-12-25T06:26:07.196Z,99333.80
2022-12-25T06:29:04.966Z,99339.00
2022-12-25T06:32:02.701Z,99340.00
2022-12-25T06:35:00.310Z,99336.80
2022-12-25T06:37:58.177Z,99337.00
2022-12-25T06:40:55.626Z,99341.00
2022-12-25T06:43:53.299Z,99342.80
2022-12-25T06:46:51.071Z,99342.40
2022-12-25T06:49:48.497Z,99338.40
2022-12-25T06:52:46.273Z,99340.60
2022-12-25T06:55:43.708Z,99345.80
2022-12-25T06:58:41.393Z,99349.00
2022-12-25T07:01:38.919Z,99354.60
2022-12-25T07:04:38.473Z,99364.20
2022-12-25T07:07:35.914Z,99363.00
2022-12-25T07:10:33.615Z,99373.20
2022-12-25T07:13:31.083Z,99375.60
2022-12-25T07:16:28.827Z,99378.60
2022-12-25T07:19:26.570Z,99384.60
2022-12-25T07:22:23.964Z,99384.20
2022-12-25T07:25:21.559Z,99390.40
2022-12-25T07:28:18.984Z,99392.20
2022-12-25T07:31:16.766Z,99394.00
2022-12-25T07:34:14.294Z,99400.00
2022-12-25T07:37:11.912Z,99406.80
2022-12-25T07:40:09.331Z,99405.40
2022-12-25T07:43:07.096Z,99403.20
2022-12-25T07:46:05.140Z,99402.60
2022-12-25T07:49:02.875Z,99395.00
2022-12-25T07:52:00.310Z,99398.00
2022-12-25T07:54:58.073Z,99399.20
2022-12-25T07:57:55.491Z,99400.40
2022-12-25T08:00:53.365Z,99397.00
2022-12-25T08:03:51.692Z,99393.40
2022-12-25T08:06:49.329Z,99396.20
2022-12-25T08:09:46.957Z,99394.20
2022-12-25T08:12:44.404Z,99395.60
2022-12-25T08:15:42.235Z,99397.00
2022-12-25T08:18:39.668Z,99400.80
2022-12-25T08:21:37.450Z,99403.00
2022-12-25T08:24:34.875Z,99408.40
2022-12-25T08:27:32.677Z,99411.60
2022-12-25T08:30:30.422Z,99419.20
2022-12-25T08:33:28.318Z,99412.60
2022-12-25T08:36:26.076Z,99422.80
2022-12-25T08:39:23.527Z,99413.00
2022-12-25T08:42:21.306Z,99412.60
2022-12-25T08:45:18.735Z,99411.00
2022-12-25T08:48:16.468Z,99414.80
2022-12-25T08:51:15.634Z,99415.80
2022-12-25T08:54:13.524Z,99418.60
2022-12-25T08:57:10.951Z,99411.80
2022-12-25T09:00:09.242Z,99406.00
2022-12-25T09:03:06.763Z,99410.60
2022-12-25T09:06:04.557Z,99406.60
2022-12-25T09:09:02.252Z,99400.00
2022-12-25T09:11:59.673Z,99404.00
2022-12-25T09:14:57.467Z,99399.80
2022-12-25T09:17:54.894Z,99401.20
2022-12-25T09:20:52.682Z,99402.00
2022-12-25T09:23:50.448Z,99401.20
2022-12-25T09:26:47.867Z,99399.60
2022-12-25T09:29:45.582Z,99401.40
2022-12-25T09:32:43.032Z,99405.20
2022-12-25T09:35:40.618Z,99414.20
2022-12-25T09:38:38.067Z,99414.60
2022-12-25T09:41:35.685Z,99410.00
2022-12-25T09:44:33.139Z,99417.60
2022-12-25T09:47:30.848Z,99421.20
2022-12-25T09:50:28.250Z,99422.00
2022-12-25T09:53:25.846Z,99426.20
2022-12-25T09:56:25.861Z,99424.80
2022-12-25T09:59:23.277Z,99423.60
2022-12-25T10:02:21.330Z,99408.40
2022-12-25T10:05:18.981Z,99404.40
2022-12-25T10:08:16.601Z,99404.00
2022-12-25T10:11:14.046Z,99402.40
2022-12-25T10:14:11.776Z,99403.00
2022-12-25T10:17:09.540Z,99406.00
2022-12-25T10:20:08.348Z,99405.00
2022-12-25T10:23:05.957Z,99395.60
2022-12-25T10:26:04.328Z,99391.20
2022-12-25T10:29:01.994Z,99391.40
2022-12-25T10:31:59.446Z,99383.60
2022-12-25T10:34:57.181Z,99385.40
2022-12-25T10:37:55.444Z,99390.00
2022-12-25T10:40:53.130Z,99381.20
2022-12-25T10:43:50.765Z,99383.40
2022-12-25T10:46:48.228Z,99374.00
2022-12-25T10:49:45.910Z,99381.00
2022-12-25T10:52:43.335Z,99379.20
2022-12-25T10:55:40.948Z,99376.40
2022-12-25T10:58:38.387Z,99376.80
2022-12-25T11:01:36.185Z,99366.60
2022-12-25T11:04:33.777Z,99364.60
2022-12-25T11:07:31.216Z,99358.80
2022-12-25T11:10:28.948Z,99347.20
2022-12-25T11:13:27.075Z,99347.00
2022-12-25T11:16:24.866Z,99347.60
2022-12-25T11:19:22.427Z,99341.80
2022-12-25T11:22:20.103Z,99336.20
2022-12-25T11:25:17.611Z,99336.00
2022-12-25T11:28:15.068Z,99333.60
2022-12-25T11:31:13.106Z,99333.20
2022-12-25T11:34:11.473Z,99331.40
2022-12-25T11:37:09.464Z,99324.00
2022-12-25T11:40:07.516Z,99318.40
2022-12-25T11:43:08.191Z,99324.40
2022-12-25T11:46:05.910Z,99320.60
2022-12-25T11:49:03.719Z,99316.00
2022-12-25T11:52:01.193Z,99313.20
2022-12-25T11:54:58.925Z,99303.40
2022-12-25T11:57:56.700Z,99302.00
2022-12-25T12:00:54.175Z,99312.40
2022-12-25T12:03:51.980Z,99310.40
2022-12-25T12:06:49.454Z,99308.80
2022-12-25T12:09:47.144Z,99303.00
2022-12-25T12:12:48.840Z,99299.20
2022-12-25T12:15:46.977Z,99290.00
2022-12-25T12:18:50.337Z,99280.00
2022-12-25T12:21:48.468Z,99279.60
2022-12-25T12:24:46.117Z,99286.80
2022-12-25T12:27:43.565Z,99278.80
2022-12-25T12:30:41.116Z,99272.20
2022-12-25T12:33:38.553Z,99272.60
2022-12-25T12:36:37.003Z,99276.00
2022-12-25T12:39:34.557Z,99275.40
2022-12-25T12:42:32.333Z,99278.00
2022-12-25T12:45:29.802Z,99274.60
2022-12-25T12:48:27.656Z,99271.00
2022-12-25T12:51:25.420Z,99269.80
2022-12-25T12:54:22.869Z,99270.00
2022-12-25T12:57:20.636Z,99271.00
2022-12-25T13:00:18.091Z,99266.60
2022-12-25T13:03:15.814Z,99268.20
2022-12-25T13:06:13.288Z,99263.40
2022-12-25T13:09:11.067Z,99262.60
2022-12-25T13:12:08.519Z,99252.20
2022-12-25T13:15:06.452Z,99244.80
2022-12-25T13:18:03.868Z,99231.60
2022-12-25T13:21:01.668Z,99225.00
2022-12-25T13:23:59.451Z,99217.40
2022-12-25T13:26:56.931Z,99210.80
2022-12-25T13:29:54.657Z,99209.20
2022-12-25T13:32:52.172Z,99212.80
2022-12-25T13:35:49.795Z,99217.20
2022-12-25T13:38:47.647Z,99207.60
2022-12-25T13:42:02.699Z,99206.60
2022-12-25T13:45:00.384Z,99203.80
2022-12-25T13:47:57.947Z,99214.20
2022-12-25T13:50:56.185Z,99216.40
2022-12-25T13:53:53.625Z,99215.00
2022-12-25T13:56:51.352Z,99216.60
2022-12-25T13:59:49.110Z,99214.60
2022-12-25T14:02:46.723Z,99221.00
2022-12-25T14:05:44.427Z,99222.20
2022-12-25T14:08:41.846Z,99218.80
2022-12-25T14:11:39.565Z,99224.40
2022-12-25T14:14:37.025Z,99232.20
2022-12-25T14:17:34.628Z,99234.20
2022-12-25T14:20:32.052Z,99229.60
2022-12-25T14:23:29.821Z,99229.80
2022-12-25T14:26:27.276Z,99234.40
2022-12-25T14:29:28.303Z,99234.40
2022-12-25T14:32:26.280Z,99241.60
2022-12-25T14:35:23.992Z,99236.00
2022-12-25T14:38:21.801Z,99238.40
2022-12-25T14:41:25.770Z,99239.20
2022-12-25T14:44:23.901Z,99241.40
2022-12-25T14:47:21.604Z,99236.00
2022-12-25T14:50:19.345Z,99241.20
2022-12-25T14:53:16.776Z,99243.60
2022-12-25T14:56:15.182Z,99233.00
2022-12-25T14:59:12.614Z,99228.60
2022-12-25T15:02:15.086Z,99227.20
2022-12-25T15:05:16.630Z,99227.40
2022-12-25T15:08:14.052Z,99228.60
2022-12-25T15:11:11.803Z,99227.40
2022-12-25T15:14:09.218Z,99222.00
2022-12-25T15:17:06.977Z,99216.20
2022-12-25T15:20:06.484Z,99216.00
2022-12-25T15:23:19.328Z,99216.00
2022-12-25T15:26:17.840Z,99206.20
2022-12-25T15:29:15.271Z,99206.80
2022-12-25T15:32:12.848Z,99198.80
2022-12-25T15:35:10.262Z,99192.00
2022-12-25T15:38:07.990Z,99191.00
2022-12-25T15:41:05.407Z,99186.40
2022-12-25T15:44:03.124Z,99187.00
2022-12-25T15:47:00.526Z,99185.80
2022-12-25T15:49:58.223Z,99180.40
2022-12-25T15:52:55.623Z,99174.20
2022-12-25T15:55:53.242Z,99167.40
2022-12-25T15:58:50.875Z,99162.80
2022-12-25T16:01:48.458Z,99163.80
2022-12-25T16:04:46.235Z,99167.40
2022-12-25T16:07:43.687Z,99180.40
2022-12-25T16:10:41.356Z,99183.00
2022-12-25T16:13:38.769Z,99191.40
2022-12-25T16:16:36.589Z,99196.40
2022-12-25T16:19:34.047Z,99181.80
2022-12-25T16:22:32.329Z,99185.20
2022-12-25T16:25:30.121Z,99184.00
2022-12-25T16:28:27.538Z,99180.40
2022-12-25T16:31:25.344Z,99162.20
2022-12-25T16:34:22.911Z,99147.00
2022-12-25T16:37:20.440Z,99145.20
2022-12-25T16:40:18.077Z,99138.20
2022-12-25T16:43:21.924Z,99127.80
2022-12-25T16:46:21.525Z,99122.60
2022-12-25T16:49:19.260Z,99119.00
2022-12-25T16:52:16.984Z,99120.80
2022-12-25T16:55:14.408Z,99120.60
2022-12-25T16:58:12.215Z,99122.60
2022-12-25T17:01:09.678Z,99123.80
2022-12-25T17:04:07.404Z,99125.80
2022-12-25T17:07:04.917Z,99128.40
2022-12-25T17:10:03.979Z,99129.00
2022-12-25T17:13:01.388Z,99122.00
2022-12-25T17:15:59.250Z,99110.60
2022-12-25T17:18:57.022Z,99106.60
2022-12-25T17:21:54.853Z,99110.00
2022-12-25T17:24:52.523Z,99118.20
2022-12-25T17:27:49.956Z,99116.60
2022-12-25T17:30:47.743Z,99113.00
2022-12-25T17:33:45.177Z,99106.20
2022-12-25T17:36:42.990Z,99103.00
2022-12-25T17:39:40.754Z,99096.40
2022-12-25T17:42:38.225Z,99094.20
2022-12-25T17:45:35.997Z,99096.60
2022-12-25T17:48:33.441Z,99097.00
2022-12-25T17:51:31.233Z,99092.80
2022-12-25T17:54:28.655Z,99084.40
2022-12-25T17:57:26.435Z,99083.40
2022-12-25T18:00:23.919Z,99090.40
2022-12-25T18:03:21.715Z,99094.20
2022-12-25T18:06:19.314Z,99093.40
2022-12-25T18:09:16.995Z,99088.40
2022-12-25T18:12:15.416Z,99071.80
2022-12-25T18:15:13.025Z,99052.80
2022-12-25T18:18:10.656Z,99037.20
2022-12-25T18:21:08.107Z,99036.20
2022-12-25T18:24:05.948Z,99031.20
2022-12-25T18:27:03.392Z,99031.80
2022-12-25T18:30:00.841Z,99030.60
2022-12-25T18:32:58.281Z,99028.20
2022-12-25T18:35:55.971Z,99034.80
2022-12-25T18:38:53.662Z,99027.00
2022-12-25T18:42:08.689Z,99020.60
2022-12-25T18:45:06.476Z,99023.60
2022-12-25T18:48:06.559Z,99022.80
2022-12-25T18:51:04.398Z,99020.80
2022-12-25T18:54:02.663Z,99024.80
2022-12-25T18:57:05.404Z,99019.20
2022-12-25T19:00:05.082Z,99015.60
2022-12-25T19:03:03.802Z,99002.20
2022-12-25T19:06:02.023Z,98999.00
2022-12-25T19:09:00.263Z,98990.20
2022-12-25T19:11:58.263Z,98993.40
2022-12-25T19:14:55.690Z,98995.60
2022-12-25T19:17:53.548Z,98992.40
2022-12-25T19:20:51.073Z,98988.20
2022-12-25T19:23:48.806Z,98993.80
2022-12-25T19:26:46.247Z,98979.00
2022-12-25T19:29:44.177Z,98983.00
2022-12-25T19:32:41.712Z,98982.20
2022-12-25T19:35:39.656Z,98978.80
2022-12-25T19:38:37.262Z,98972.40
2022-12-25T19:41:35.010Z,98975.40
2022-12-25T19:44:32.438Z,98971.80
2022-12-25T19:47:30.036Z,98975.60
2022-12-25T19:50:28.849Z,98973.20
2022-12-25T19:53:27.313Z,98975.20
2022-12-25T19:56:25.092Z,98962.40
2022-12-25T19:59:23.378Z,98957.00
2022-12-25T20:02:21.486Z,98951.40
2022-12-25T20:05:19.140Z,98962.00
2022-12-25T20:08:17.891Z,98963.20
2022-12-25T20:11:16.085Z,98966.60
2022-12-25T20:14:13.770Z,98967.60
2022-12-25T20:17:15.791Z,98969.40
2022-12-25T20:20:14.717Z,98972.40
2022-12-25T20:23:12.490Z,98969.40
2022-12-25T20:26:11.351Z,98968.20
2022-12-25T20:29:09.252Z,98973.00
2022-12-25T20:32:07.336Z,98972.20
2022-12-25T20:35:05.548Z,98978.40
2022-12-25T20:38:03.223Z,98980.80
2022-12-25T20:41:26.309Z,98972.40
2022-12-25T20:44:19.761Z,98973.40
2022-12-25T20:47:17.908Z,98983.20
2022-12-25T20:50:15.597Z,98985.40
2022-12-25T20:53:13.366Z,98989.20
2022-12-25T20:56:11.123Z,98990.00
2022-12-25T20:59:09.075Z,98987.40
2022-12-25T21:02:07.032Z,98984.00
2022-12-25T21:05:05.126Z,98991.20
2022-12-25T21:08:02.872Z,98999.00
2022-12-25T21:11:01.269Z,99000.20
2022-12-25T21:13:59.064Z,99008.80
2022-12-25T21:16:58.096Z,99005.60
2022-12-25T21:19:55.593Z,99002.60
2022-12-25T21:22:53.309Z,99006.80
2022-12-25T21:25:51.068Z,98999.60
2022-12-25T21:28:48.824Z,98992.60
2022-12-25T21:32:00.128Z,98987.00
2022-12-25T21:34:57.751Z,98981.00
2022-12-25T21:37:55.188Z,98981.00
2022-12-25T21:40:52.871Z,98985.60
2022-12-25T21:43:50.860Z,98979.80
2022-12-25T21:46:48.443Z,98977.20
2022-12-25T21:50:04.442Z,98977.40
2022-12-25T21:53:01.869Z,98980.40
2022-12-25T21:55:59.663Z,98982.60
2022-12-25T21:58:57.101Z,98982.00
2022-12-25T22:01:54.962Z,98970.80
2022-12-25T22:04:52.745Z,98977.20
2022-12-25T22:07:50.209Z,98983.60
2022-12-25T22:10:47.894Z,98984.00
2022-12-25T22:13:59.186Z,98979.20
2022-12-25T22:17:14.546Z,98982.00
2022-12-25T22:20:12.322Z,98979.80
2022-12-25T22:23:09.770Z,98992.60
2022-12-25T22:26:07.524Z,98989.80
2022-12-25T22:29:04.980Z,98982.60
2022-12-25T22:32:02.765Z,98986.00
2022-12-25T22:35:00.578Z,98980.00
2022-12-25T22:37:58.287Z,98974.00
2022-12-25T22:40:55.918Z,98976.40
2022-12-25T22:44:16.616Z,98976.40
2022-12-25T22:47:11.000Z,98972.80
2022-12-25T22:50:08.438Z,98981.60
2022-12-25T22:53:06.196Z,98979.20
2022-12-25T22:56:03.624Z,98975.60
2022-12-25T22:59:01.278Z,98966.60
2022-12-25T23:01:58.816Z,98968.60
2022-12-25T23:04:56.642Z,98970.40
2022-12-25T23:07:54.299Z,98966.60
2022-12-25T23:10:51.735Z,98973.40
2022-12-25T23:14:07.445Z,98981.00
2022-12-25T23:17:04.877Z,98972.80
2022-12-25T23:20:20.627Z,98974.00
2022-12-25T23:23:35.972Z,98982.20
2022-12-25T23:26:33.393Z,98976.40
2022-12-25T23:29:40.408Z,98983.20
2022-12-25T23:32:37.842Z,98981.80
2022-12-25T23:35:35.570Z,98983.80
2022-12-25T23:38:33.003Z,98992.60
2022-12-25T23:41:30.709Z,98989.40
2022-12-25T23:44:28.134Z,98997.80
2022-12-25T23:47:25.886Z,98991.80
2022-12-25T23:50:23.317Z,98997.80
2022-12-25T23:53:20.978Z,98998.60
2022-12-25T23:56:18.591Z,99005.00
2022-12-25T23:59:16.034Z,99015.40
